W. O. Watson — WDE2805 — position and weather

sailwx.info

Track history (hours):
 
Tides and Currents Weather Stations Pressure Air Temp Water Temp Dewpoint Dewpoint Depression Visibility Wind Speed Wind Dir Waves Ship Positions

W. O. Watson

Owner: Martin Operating Partnership,LP, Vidor, TX. More information available from US FCC via Universal Licensing System and Coast Guard Vessel Documentation Center.

Last reported at 2014-Oct-01 05:33 UTC. Time now 2014-Oct-01 06:11 UTC.
Position N 29°46' W 095°07'.

Length 32 m; draft 2.8 m.

MMSI: 367329860.

Date/timePositionNaut miles runAvg speedWind from/ knotsBaromVisibWave heightAir tempDewpointWater temp
2014-Oct-01 05:33N 29°46' W 095°07'0 0.0
2014-Oct-01 04:32N 29°46' W 095°07'0 0.0
2014-Oct-01 01:33N 29°46' W 095°07'0 0.0
2014-Oct-01 00:20N 29°46' W 095°07'0 0.0
2014-Sep-30 23:30N 29°46' W 095°07'0 0.0
2014-Sep-30 22:31N 29°46' W 095°07'0 0.4
2014-Sep-30 21:32N 29°46' W 095°07'2 1.9
2014-Sep-30 20:32N 29°46' W 095°05'2 2.2
2014-Sep-30 19:30N 29°46' W 095°07'2 2.2
2014-Sep-30 18:33N 29°46' W 095°05'0 0.3
2014-Sep-30 17:33N 29°46' W 095°05'1 1.2
2014-Sep-30 16:33N 29°47' W 095°04'0 0.4
2014-Sep-30 15:28N 29°47' W 095°04'2 0.7
2014-Sep-30 13:21N 29°46' W 095°06'0 0.0
2014-Sep-29 19:33N 29°46' W 095°06'1 0.6
2014-Sep-29 18:32N 29°46' W 095°06'0 0.0
2014-Sep-29 17:33N 29°46' W 095°06'0 0.0
2014-Sep-29 16:33N 29°46' W 095°06'0 0.0
2014-Sep-29 15:33N 29°46' W 095°06'0 0.0
2014-Sep-29 14:33N 29°46' W 095°06'1 0.1
2014-Sep-29 08:32N 29°46' W 095°06'0 0.0
2014-Sep-29 07:29N 29°46' W 095°06'0 0.0
2014-Sep-29 06:33N 29°46' W 095°06'0 0.0
2014-Sep-29 05:32N 29°46' W 095°06'0 0.0
2014-Sep-29 04:31N 29°46' W 095°06'0 0.0
2014-Sep-29 02:33N 29°46' W 095°06'0 0.0
2014-Sep-29 00:28N 29°46' W 095°06'0 0.0
2014-Sep-28 23:33N 29°46' W 095°06'0 0.0
2014-Sep-28 22:33N 29°46' W 095°06'0 0.0
2014-Sep-28 21:33N 29°46' W 095°06'0 0.0
2014-Sep-28 20:33N 29°46' W 095°06'0 0.0
2014-Sep-28 19:33N 29°46' W 095°06'0 0.0
2014-Sep-28 18:33N 29°46' W 095°06'0 0.0
2014-Sep-28 17:33N 29°46' W 095°06'0 0.0
2014-Sep-28 16:33N 29°46' W 095°06'0 0.0
2014-Sep-28 15:33N 29°46' W 095°06'0 0.0
2014-Sep-28 14:33N 29°46' W 095°06'0 0.0
2014-Sep-28 13:33N 29°46' W 095°06'0 0.0
2014-Sep-28 11:10N 29°46' W 095°06'0 0.0
2014-Sep-28 09:33N 29°46' W 095°06'0 0.0
2014-Sep-28 08:16N 29°46' W 095°06'0 0.0
2014-Sep-28 07:21N 29°46' W 095°06'0 0.0
2014-Sep-28 05:33N 29°46' W 095°06'0 0.0
2014-Sep-28 04:33N 29°46' W 095°06'0 0.0
2014-Sep-28 03:31N 29°46' W 095°06'0 0.0
2014-Sep-28 02:10N 29°46' W 095°06'0 0.0
2014-Sep-28 01:30N 29°46' W 095°06'0 0.0
2014-Sep-28 00:30N 29°46' W 095°06'0 0.0
2014-Sep-27 23:33N 29°46' W 095°06'0 0.0
2014-Sep-27 22:33N 29°46' W 095°05'1 0.7
2014-Sep-27 21:33N 29°46' W 095°06'0 0.0
2014-Sep-27 20:33N 29°46' W 095°06'0 0.0
2014-Sep-27 19:16N 29°46' W 095°06'0 0.0
2014-Sep-27 18:30N 29°46' W 095°06'2 2.2
2014-Sep-27 17:33N 29°47' W 095°04'0 0.0
2014-Sep-27 16:33N 29°47' W 095°04'0 0.1
2014-Sep-27 15:33N 29°47' W 095°04'2 1.7
2014-Sep-27 14:32N 29°47' W 095°06'0 0.0
2014-Sep-27 13:33N 29°47' W 095°06'0 0.0
2014-Sep-27 12:31N 29°47' W 095°06'0 0.0
2014-Sep-27 06:09N 29°47' W 095°06'0 0.0
2014-Sep-26 23:33N 29°47' W 095°06'0 0.4
2014-Sep-26 22:33N 29°46' W 095°06'0 0.0
2014-Sep-26 21:33N 29°46' W 095°06'0 0.0
2014-Sep-26 19:13N 29°46' W 095°06'0 0.0
2014-Sep-26 18:04N 29°46' W 095°06'0 0.0
2014-Sep-26 17:29N 29°46' W 095°06'0 0.0
2014-Sep-26 16:16N 29°46' W 095°06'2 0.1
2014-Sep-25 19:33N 29°47' W 095°04'1 0.5
2014-Sep-25 18:33N 29°47' W 095°04'0 0.0
2014-Sep-25 17:33N 29°47' W 095°04'2 1.6
2014-Sep-25 16:33N 29°46' W 095°04'7 6.7
2014-Sep-25 15:33N 29°41' W 094°59'8 7.8
2014-Sep-25 14:33N 29°34' W 094°55'8 8.0
2014-Sep-25 13:33N 29°27' W 094°51'5 4.5
2014-Sep-25 12:31N 29°22' W 094°51'3 0.2
2014-Sep-24 17:33N 29°22' W 094°54'10 3.1
2014-Sep-24 14:29N 29°25' W 094°44'0 0.1
2014-Sep-24 13:32N 29°25' W 094°44'0 0.0
2014-Sep-22 21:04N 29°25' W 094°44'0 0.0
2014-Sep-22 20:29N 29°25' W 094°44'0 0.0
2014-Sep-22 19:33N 29°25' W 094°44'0 0.0
2014-Sep-22 18:33N 29°25' W 094°44'0 0.0
2014-Sep-22 17:33N 29°25' W 094°44'0 0.0
2014-Sep-22 16:33N 29°25' W 094°44'0 0.0
2014-Sep-22 15:33N 29°25' W 094°44'0 0.0
2014-Sep-22 14:27N 29°25' W 094°44'0 0.0
2014-Sep-22 13:33N 29°25' W 094°44'0 0.0
2014-Sep-21 21:32N 29°25' W 094°44'0 0.0
2014-Sep-21 19:33N 29°25' W 094°44'0 0.0
2014-Sep-21 18:27N 29°25' W 094°44'0 0.0
2014-Sep-21 17:32N 29°25' W 094°44'0 0.0
2014-Sep-21 16:32N 29°25' W 094°44'0 0.0
2014-Sep-21 15:31N 29°25' W 094°44'0 0.0
2014-Sep-21 13:03N 29°25' W 094°44'0 0.0
2014-Sep-21 12:32N 29°25' W 094°44'  
Track history (hours):
 
Tides and Currents Weather Stations Pressure Air Temp Water Temp Dewpoint Dewpoint Depression Visibility Wind Speed Wind Dir Waves Ship Positions

W. O. Watson

Owner: Martin Operating Partnership,LP, Vidor, TX. More information available from US FCC via Universal Licensing System and Coast Guard Vessel Documentation Center.

Last reported at 2014-Oct-01 05:33 UTC. Time now 2014-Oct-01 06:11 UTC.
Position N 29°46' W 095°07'.

Length 32 m; draft 2.8 m.

MMSI: 367329860.

Date/timePositionNaut miles runAvg speedWind from/ knotsBaromVisibWave heightAir tempDewpointWater temp
2014-Oct-01 05:33N 29°46' W 095°07'0 0.0
2014-Oct-01 04:32N 29°46' W 095°07'0 0.0
2014-Oct-01 01:33N 29°46' W 095°07'0 0.0
2014-Oct-01 00:20N 29°46' W 095°07'0 0.0
2014-Sep-30 23:30N 29°46' W 095°07'0 0.0
2014-Sep-30 22:31N 29°46' W 095°07'0 0.4
2014-Sep-30 21:32N 29°46' W 095°07'2 1.9
2014-Sep-30 20:32N 29°46' W 095°05'2 2.2
2014-Sep-30 19:30N 29°46' W 095°07'2 2.2
2014-Sep-30 18:33N 29°46' W 095°05'0 0.3
2014-Sep-30 17:33N 29°46' W 095°05'1 1.2
2014-Sep-30 16:33N 29°47' W 095°04'0 0.4
2014-Sep-30 15:28N 29°47' W 095°04'2 0.7
2014-Sep-30 13:21N 29°46' W 095°06'0 0.0
2014-Sep-29 19:33N 29°46' W 095°06'1 0.6
2014-Sep-29 18:32N 29°46' W 095°06'0 0.0
2014-Sep-29 17:33N 29°46' W 095°06'0 0.0
2014-Sep-29 16:33N 29°46' W 095°06'0 0.0
2014-Sep-29 15:33N 29°46' W 095°06'0 0.0
2014-Sep-29 14:33N 29°46' W 095°06'1 0.1
2014-Sep-29 08:32N 29°46' W 095°06'0 0.0
2014-Sep-29 07:29N 29°46' W 095°06'0 0.0
2014-Sep-29 06:33N 29°46' W 095°06'0 0.0
2014-Sep-29 05:32N 29°46' W 095°06'0 0.0
2014-Sep-29 04:31N 29°46' W 095°06'0 0.0
2014-Sep-29 02:33N 29°46' W 095°06'0 0.0
2014-Sep-29 00:28N 29°46' W 095°06'0 0.0
2014-Sep-28 23:33N 29°46' W 095°06'0 0.0
2014-Sep-28 22:33N 29°46' W 095°06'0 0.0
2014-Sep-28 21:33N 29°46' W 095°06'0 0.0
2014-Sep-28 20:33N 29°46' W 095°06'0 0.0
2014-Sep-28 19:33N 29°46' W 095°06'0 0.0
2014-Sep-28 18:33N 29°46' W 095°06'0 0.0
2014-Sep-28 17:33N 29°46' W 095°06'0 0.0
2014-Sep-28 16:33N 29°46' W 095°06'0 0.0
2014-Sep-28 15:33N 29°46' W 095°06'0 0.0
2014-Sep-28 14:33N 29°46' W 095°06'0 0.0
2014-Sep-28 13:33N 29°46' W 095°06'0 0.0
2014-Sep-28 11:10N 29°46' W 095°06'0 0.0
2014-Sep-28 09:33N 29°46' W 095°06'0 0.0
2014-Sep-28 08:16N 29°46' W 095°06'0 0.0
2014-Sep-28 07:21N 29°46' W 095°06'0 0.0
2014-Sep-28 05:33N 29°46' W 095°06'0 0.0
2014-Sep-28 04:33N 29°46' W 095°06'0 0.0
2014-Sep-28 03:31N 29°46' W 095°06'0 0.0
2014-Sep-28 02:10N 29°46' W 095°06'0 0.0
2014-Sep-28 01:30N 29°46' W 095°06'0 0.0
2014-Sep-28 00:30N 29°46' W 095°06'0 0.0
2014-Sep-27 23:33N 29°46' W 095°06'0 0.0
2014-Sep-27 22:33N 29°46' W 095°05'1 0.7
2014-Sep-27 21:33N 29°46' W 095°06'0 0.0
2014-Sep-27 20:33N 29°46' W 095°06'0 0.0
2014-Sep-27 19:16N 29°46' W 095°06'0 0.0
2014-Sep-27 18:30N 29°46' W 095°06'2 2.2
2014-Sep-27 17:33N 29°47' W 095°04'0 0.0
2014-Sep-27 16:33N 29°47' W 095°04'0 0.1
2014-Sep-27 15:33N 29°47' W 095°04'2 1.7
2014-Sep-27 14:32N 29°47' W 095°06'0 0.0
2014-Sep-27 13:33N 29°47' W 095°06'0 0.0
2014-Sep-27 12:31N 29°47' W 095°06'0 0.0
2014-Sep-27 06:09N 29°47' W 095°06'0 0.0
2014-Sep-26 23:33N 29°47' W 095°06'0 0.4
2014-Sep-26 22:33N 29°46' W 095°06'0 0.0
2014-Sep-26 21:33N 29°46' W 095°06'0 0.0
2014-Sep-26 19:13N 29°46' W 095°06'0 0.0
2014-Sep-26 18:04N 29°46' W 095°06'0 0.0
2014-Sep-26 17:29N 29°46' W 095°06'0 0.0
2014-Sep-26 16:16N 29°46' W 095°06'2 0.1
2014-Sep-25 19:33N 29°47' W 095°04'1 0.5
2014-Sep-25 18:33N 29°47' W 095°04'0 0.0
2014-Sep-25 17:33N 29°47' W 095°04'2 1.6
2014-Sep-25 16:33N 29°46' W 095°04'7 6.7
2014-Sep-25 15:33N 29°41' W 094°59'8 7.8
2014-Sep-25 14:33N 29°34' W 094°55'8 8.0
2014-Sep-25 13:33N 29°27' W 094°51'5 4.5
2014-Sep-25 12:31N 29°22' W 094°51'3 0.2
2014-Sep-24 17:33N 29°22' W 094°54'10 3.1
2014-Sep-24 14:29N 29°25' W 094°44'0 0.1
2014-Sep-24 13:32N 29°25' W 094°44'0 0.0
2014-Sep-22 21:04N 29°25' W 094°44'0 0.0
2014-Sep-22 20:29N 29°25' W 094°44'0 0.0
2014-Sep-22 19:33N 29°25' W 094°44'0 0.0
2014-Sep-22 18:33N 29°25' W 094°44'0 0.0
2014-Sep-22 17:33N 29°25' W 094°44'0 0.0
2014-Sep-22 16:33N 29°25' W 094°44'0 0.0
2014-Sep-22 15:33N 29°25' W 094°44'0 0.0
2014-Sep-22 14:27N 29°25' W 094°44'0 0.0
2014-Sep-22 13:33N 29°25' W 094°44'0 0.0
2014-Sep-21 21:32N 29°25' W 094°44'0 0.0
2014-Sep-21 19:33N 29°25' W 094°44'0 0.0
2014-Sep-21 18:27N 29°25' W 094°44'0 0.0
2014-Sep-21 17:32N 29°25' W 094°44'0 0.0
2014-Sep-21 16:32N 29°25' W 094°44'0 0.0
2014-Sep-21 15:31N 29°25' W 094°44'0 0.0
2014-Sep-21 13:03N 29°25' W 094°44'0 0.0
2014-Sep-21 12:32N 29°25' W 094°44'  

Dump ship's entire track history